createdAt,value
2019-01-12T00:01:30.253Z,90.00
2019-01-12T00:03:58.063Z,90.20
2019-01-12T00:06:25.892Z,90.30
2019-01-12T00:08:53.696Z,90.50
2019-01-12T00:11:21.551Z,90.50
2019-01-12T00:13:49.361Z,90.40
2019-01-12T00:16:17.165Z,90.00
2019-01-12T00:18:44.922Z,90.30
2019-01-12T00:21:12.681Z,90.20
2019-01-12T00:23:40.515Z,90.20
2019-01-12T00:26:08.354Z,90.00
2019-01-12T00:28:36.197Z,90.30
2019-01-12T00:31:04.412Z,90.10
2019-01-12T00:33:32.195Z,89.70
2019-01-12T00:35:59.996Z,90.00
2019-01-12T00:38:28.021Z,90.00
2019-01-12T00:40:55.876Z,89.20
2019-01-12T00:43:23.710Z,89.10
2019-01-12T00:45:51.504Z,88.80
2019-01-12T00:48:34.499Z,87.80
2019-01-12T00:51:02.283Z,87.20
2019-01-12T00:53:30.115Z,87.40
2019-01-12T00:55:57.980Z,86.70
2019-01-12T00:58:25.782Z,86.60
2019-01-12T01:00:53.568Z,87.30
2019-01-12T01:03:21.365Z,87.30
2019-01-12T01:05:49.373Z,87.70
2019-01-12T01:08:17.302Z,87.30
2019-01-12T01:10:45.103Z,87.70
2019-01-12T01:13:13.082Z,89.20
2019-01-12T01:15:40.879Z,87.30
2019-01-12T01:18:13.766Z,87.40
2019-01-12T01:20:41.564Z,87.40
2019-01-12T01:23:09.328Z,87.70
2019-01-12T01:25:37.217Z,87.60
2019-01-12T01:28:04.997Z,87.40
2019-01-12T01:30:32.832Z,87.40
2019-01-12T01:33:00.619Z,87.50
2019-01-12T01:35:28.391Z,87.20
2019-01-12T01:37:56.195Z,87.20
2019-01-12T01:40:24.119Z,87.50
2019-01-12T01:42:51.921Z,87.50
2019-01-12T01:45:19.753Z,87.40
2019-01-12T01:47:47.549Z,87.30
2019-01-12T01:50:16.161Z,87.40
2019-01-12T01:52:44.051Z,88.80
2019-01-12T01:55:12.318Z,89.80
2019-01-12T01:57:40.107Z,90.50
2019-01-12T02:00:12.829Z,90.10
2019-01-12T02:02:40.641Z,90.50
2019-01-12T02:05:08.482Z,90.00
2019-01-12T02:07:36.216Z,89.50
2019-01-12T02:10:07.047Z,90.40
2019-01-12T02:12:34.821Z,89.70
2019-01-12T02:15:03.138Z,89.80
2019-01-12T02:17:31.008Z,89.40
2019-01-12T02:19:58.922Z,89.00
2019-01-12T02:22:26.793Z,89.70
2019-01-12T02:24:59.982Z,90.10
2019-01-12T02:27:24.454Z,89.50
2019-01-12T02:29:52.291Z,89.80
2019-01-12T02:32:20.093Z,89.60
2019-01-12T02:34:47.895Z,89.80
2019-01-12T02:37:15.753Z,90.10
2019-01-12T02:39:43.632Z,90.10
2019-01-12T02:42:11.433Z,89.90
2019-01-12T02:44:39.293Z,90.20
2019-01-12T02:47:26.574Z,89.00
2019-01-12T02:49:54.439Z,89.20
2019-01-12T02:52:22.208Z,88.10
2019-01-12T02:54:50.045Z,87.60
2019-01-12T02:57:17.967Z,88.80
2019-01-12T02:59:45.738Z,88.40
2019-01-12T03:02:13.524Z,87.90
2019-01-12T03:04:41.336Z,87.90
2019-01-12T03:07:09.188Z,87.50
2019-01-12T03:09:36.997Z,87.50
2019-01-12T03:12:04.812Z,87.60
2019-01-12T03:14:32.642Z,88.30
2019-01-12T03:17:00.528Z,88.30
2019-01-12T03:19:28.378Z,89.30
2019-01-12T03:21:56.156Z,89.40
2019-01-12T03:24:23.990Z,90.00
2019-01-12T03:26:56.914Z,90.90
2019-01-12T03:29:24.665Z,91.00
2019-01-12T03:31:52.524Z,91.00
2019-01-12T03:34:20.742Z,91.10
2019-01-12T03:36:48.548Z,91.10
2019-01-12T03:39:16.316Z,91.20
2019-01-12T03:41:44.104Z,91.10
2019-01-12T03:44:11.907Z,91.10
2019-01-12T03:47:45.549Z,91.20
2019-01-12T03:50:32.850Z,90.90
2019-01-12T03:53:00.626Z,91.20
2019-01-12T03:55:28.411Z,90.70
2019-01-12T03:57:56.204Z,90.80
2019-01-12T04:00:24.748Z,90.70
2019-01-12T04:02:52.617Z,90.60
2019-01-12T04:05:20.379Z,90.70
2019-01-12T04:07:48.162Z,90.60
2019-01-12T04:10:16.051Z,90.60
2019-01-12T04:12:43.845Z,90.70
2019-01-12T04:15:11.993Z,91.10
2019-01-12T04:17:52.380Z,90.70
2019-01-12T04:20:20.163Z,91.40
2019-01-12T04:22:47.923Z,90.60
2019-01-12T04:25:15.758Z,90.70
2019-01-12T04:27:43.513Z,90.60
2019-01-12T04:30:15.467Z,90.60
2019-01-12T04:32:43.261Z,90.90
2019-01-12T04:35:11.237Z,90.30
2019-01-12T04:37:39.056Z,90.30
2019-01-12T04:40:11.440Z,90.10
2019-01-12T04:42:39.264Z,90.30
2019-01-12T04:45:07.712Z,90.30
2019-01-12T04:47:35.495Z,90.00
2019-01-12T04:50:04.348Z,90.00
2019-01-12T04:52:32.188Z,90.40
2019-01-12T04:55:00.044Z,90.50
2019-01-12T04:57:27.778Z,90.50
2019-01-12T04:59:55.574Z,90.70
2019-01-12T05:02:23.382Z,90.40
2019-01-12T05:04:51.140Z,90.30
2019-01-12T05:07:18.912Z,90.20
2019-01-12T05:09:46.702Z,90.20
2019-01-12T05:12:14.482Z,90.40
2019-01-12T05:14:42.258Z,90.50
2019-01-12T05:17:29.505Z,90.50
2019-01-12T05:19:57.738Z,90.60
2019-01-12T05:22:25.562Z,90.30
2019-01-12T05:25:12.778Z,90.40
2019-01-12T05:27:40.652Z,90.70
2019-01-12T05:30:12.504Z,90.30
2019-01-12T05:32:40.313Z,90.70
2019-01-12T05:35:08.183Z,90.70
2019-01-12T05:37:38.677Z,90.70
2019-01-12T05:40:06.861Z,90.80
2019-01-12T05:42:34.699Z,90.60
2019-01-12T05:45:02.596Z,90.80
2019-01-12T05:47:30.415Z,91.20
2019-01-12T05:49:58.209Z,90.60
2019-01-12T05:52:25.950Z,90.60
2019-01-12T05:54:53.745Z,90.70
2019-01-12T05:57:21.511Z,91.20
2019-01-12T05:59:49.313Z,91.10
2019-01-12T06:02:17.081Z,91.10
2019-01-12T06:04:44.878Z,91.50
2019-01-12T06:07:17.837Z,91.20
2019-01-12T06:10:05.595Z,91.50
2019-01-12T06:12:33.392Z,91.40
2019-01-12T06:15:01.227Z,91.20
2019-01-12T06:17:29.176Z,91.20
2019-01-12T06:19:56.981Z,91.20
2019-01-12T06:22:24.785Z,91.20
2019-01-12T06:24:52.609Z,91.20
2019-01-12T06:27:20.433Z,90.80
2019-01-12T06:29:48.235Z,90.80
2019-01-12T06:32:16.010Z,90.50
2019-01-12T06:34:43.841Z,90.80
2019-01-12T06:37:11.625Z,90.60
2019-01-12T06:39:39.429Z,90.70
2019-01-12T06:42:07.237Z,90.50
2019-01-12T06:44:35.052Z,90.90
2019-01-12T06:47:02.852Z,90.80
2019-01-12T06:49:30.717Z,91.00
2019-01-12T06:51:58.620Z,90.90
2019-01-12T06:54:26.459Z,90.80
2019-01-12T06:56:59.550Z,90.90
2019-01-12T06:59:27.339Z,90.80
2019-01-12T07:01:55.094Z,90.90
2019-01-12T07:04:23.682Z,90.80
2019-01-12T07:06:51.482Z,90.70
2019-01-12T07:09:19.309Z,90.70
2019-01-12T07:11:47.097Z,90.80
2019-01-12T07:14:14.911Z,90.70
2019-01-12T07:17:07.263Z,90.50
2019-01-12T07:19:35.073Z,90.20
2019-01-12T07:22:02.855Z,90.30
2019-01-12T07:24:30.611Z,90.10
2019-01-12T07:26:58.487Z,90.20
2019-01-12T07:29:26.275Z,90.00
2019-01-12T07:31:54.120Z,89.30
2019-01-12T07:34:21.967Z,89.60
2019-01-12T07:36:49.845Z,88.70
2019-01-12T07:39:17.660Z,89.20
2019-01-12T07:41:46.245Z,89.10
2019-01-12T07:44:14.036Z,88.90
2019-01-12T07:46:41.803Z,89.30
2019-01-12T07:49:09.673Z,89.60
2019-01-12T07:51:38.798Z,88.80
2019-01-12T07:54:06.559Z,89.50
2019-01-12T07:56:34.370Z,89.00
2019-01-12T07:59:03.361Z,88.10
2019-01-12T08:01:31.161Z,88.20
2019-01-12T08:03:58.926Z,87.00
2019-01-12T08:06:26.718Z,88.40
2019-01-12T08:08:54.619Z,88.50
2019-01-12T08:11:22.489Z,88.20
2019-01-12T08:13:50.226Z,88.20
2019-01-12T08:16:18.087Z,88.10
2019-01-12T08:18:45.949Z,88.20
2019-01-12T08:21:13.759Z,88.90
2019-01-12T08:23:41.556Z,88.20
2019-01-12T08:26:09.429Z,88.20
2019-01-12T08:28:37.247Z,88.20
2019-01-12T08:31:05.083Z,88.30
2019-01-12T08:33:32.889Z,88.40
2019-01-12T08:36:00.914Z,88.90
2019-01-12T08:38:33.857Z,88.20
2019-01-12T08:41:01.748Z,88.30
2019-01-12T08:43:49.018Z,88.30
2019-01-12T08:46:21.796Z,90.10
2019-01-12T08:48:49.603Z,88.30
2019-01-12T08:51:17.370Z,88.30
2019-01-12T08:53:45.158Z,88.30
2019-01-12T08:56:13.090Z,88.60
2019-01-12T08:58:40.875Z,88.30
2019-01-12T09:01:08.844Z,88.70
2019-01-12T09:03:36.672Z,88.30
2019-01-12T09:06:04.562Z,88.30
2019-01-12T09:08:32.378Z,88.20
2019-01-12T09:11:00.183Z,87.30
2019-01-12T09:13:27.974Z,87.70
2019-01-12T09:15:55.904Z,87.40
2019-01-12T09:18:23.949Z,86.80
2019-01-12T09:20:51.995Z,86.40
2019-01-12T09:23:19.830Z,85.70
2019-01-12T09:25:47.616Z,85.80
2019-01-12T09:28:15.402Z,84.50
2019-01-12T09:30:48.456Z,84.00
2019-01-12T09:33:12.832Z,83.60
2019-01-12T09:35:40.658Z,83.60
2019-01-12T09:38:18.635Z,83.60
2019-01-12T09:40:46.510Z,83.00
2019-01-12T09:43:14.285Z,82.80
2019-01-12T09:45:42.075Z,82.30
2019-01-12T09:48:29.327Z,83.10
2019-01-12T09:50:57.068Z,83.70
2019-01-12T09:53:24.864Z,83.70
2019-01-12T09:55:53.813Z,81.10
2019-01-12T09:58:21.640Z,81.20
2019-01-12T10:00:49.470Z,81.20
2019-01-12T10:03:17.259Z,80.90
2019-01-12T10:05:45.069Z,80.00
2019-01-12T10:08:12.965Z,79.90
2019-01-12T10:10:40.821Z,78.40
2019-01-12T10:13:08.602Z,80.20
2019-01-12T10:15:36.431Z,78.00
2019-01-12T10:18:04.587Z,78.50
2019-01-12T10:20:32.390Z,78.40
2019-01-12T10:23:02.519Z,78.40
2019-01-12T10:25:30.392Z,78.30
2019-01-12T10:27:58.223Z,78.30
2019-01-12T10:30:26.468Z,78.40
2019-01-12T10:32:54.838Z,78.30
2019-01-12T10:35:22.709Z,80.40
2019-01-12T10:37:50.636Z,80.70
2019-01-12T10:40:18.718Z,80.50
2019-01-12T10:42:47.087Z,80.80
2019-01-12T10:45:16.194Z,79.90
2019-01-12T10:47:45.445Z,80.50
2019-01-12T10:50:18.378Z,80.70
2019-01-12T10:52:46.304Z,80.40
2019-01-12T10:55:14.140Z,78.80
2019-01-12T10:57:41.918Z,78.40
2019-01-12T11:00:15.870Z,78.30
2019-01-12T11:02:52.304Z,76.30
2019-01-12T11:05:20.976Z,75.90
2019-01-12T11:08:02.166Z,75.80
2019-01-12T11:10:34.638Z,73.40
2019-01-12T11:13:02.302Z,73.50
2019-01-12T11:15:30.161Z,73.60
2019-01-12T11:17:57.975Z,73.60
2019-01-12T11:20:25.829Z,73.60
2019-01-12T11:22:53.830Z,73.60
2019-01-12T11:25:21.712Z,72.60
2019-01-12T11:27:49.510Z,73.10
2019-01-12T11:30:18.209Z,72.20
2019-01-12T11:32:47.960Z,72.90
2019-01-12T11:35:16.210Z,73.60
2019-01-12T11:37:44.366Z,71.80
2019-01-12T11:40:20.268Z,72.00
2019-01-12T11:42:49.834Z,72.40
2019-01-12T11:45:18.156Z,73.50
2019-01-12T11:47:46.194Z,72.70
2019-01-12T11:50:14.597Z,73.40
2019-01-12T11:52:43.403Z,73.40
2019-01-12T11:55:12.760Z,73.70
2019-01-12T11:57:40.585Z,74.60
2019-01-12T12:00:21.549Z,76.80
2019-01-12T12:02:49.409Z,76.70
2019-01-12T12:05:17.614Z,77.40
2019-01-12T12:07:45.584Z,77.30
2019-01-12T12:10:13.636Z,75.40
2019-01-12T12:12:41.495Z,75.60
2019-01-12T12:15:10.856Z,74.80
2019-01-12T12:17:38.817Z,74.50
2019-01-12T12:20:14.649Z,75.50
2019-01-12T12:22:42.514Z,74.50
2019-01-12T12:25:10.274Z,73.20
2019-01-12T12:27:38.106Z,74.90
2019-01-12T12:30:10.536Z,74.00
2019-01-12T12:32:38.268Z,76.20
2019-01-12T12:35:06.671Z,74.80
2019-01-12T12:37:44.072Z,74.90
2019-01-12T12:40:13.027Z,75.00
2019-01-12T12:42:40.762Z,75.30
2019-01-12T12:45:15.559Z,75.00
2019-01-12T12:47:53.464Z,75.70
2019-01-12T12:50:21.434Z,74.80
2019-01-12T12:52:49.258Z,75.20
2019-01-12T12:55:18.695Z,74.10
2019-01-12T12:57:51.605Z,73.90
2019-01-12T13:00:22.767Z,74.00
2019-01-12T13:02:50.768Z,74.90
2019-01-12T13:05:19.431Z,74.60
2019-01-12T13:07:52.409Z,74.90
2019-01-12T13:10:26.381Z,74.10
2019-01-12T13:12:54.187Z,74.30
2019-01-12T13:15:23.269Z,73.80
2019-01-12T13:18:00.517Z,74.30
2019-01-12T13:20:28.361Z,73.30
2019-01-12T13:22:56.118Z,74.00
2019-01-12T13:25:26.970Z,73.50
2019-01-12T13:27:54.771Z,74.00
2019-01-12T13:30:25.423Z,73.70
2019-01-12T13:32:53.299Z,73.30
2019-01-12T13:35:33.913Z,74.10
2019-01-12T13:38:01.932Z,75.20
2019-01-12T13:40:29.814Z,74.60
2019-01-12T13:42:57.686Z,75.30
2019-01-12T13:45:27.167Z,75.80
2019-01-12T13:48:56.079Z,75.50
2019-01-12T13:51:23.894Z,76.10
2019-01-12T13:53:51.721Z,76.40
2019-01-12T13:56:22.031Z,77.50
2019-01-12T13:58:51.052Z,78.00
2019-01-12T14:01:18.983Z,78.10
2019-01-12T14:03:46.803Z,77.90
2019-01-12T14:06:20.683Z,77.70
2019-01-12T14:08:48.529Z,77.90
2019-01-12T14:11:16.352Z,78.70
2019-01-12T14:13:44.179Z,77.80
2019-01-12T14:16:12.023Z,77.80
2019-01-12T14:18:44.021Z,79.40
2019-01-12T14:21:12.326Z,79.90
2019-01-12T14:23:40.687Z,78.80
2019-01-12T14:26:10.958Z,80.00
2019-01-12T14:28:39.669Z,80.20
2019-01-12T14:31:07.557Z,79.90
2019-01-12T14:33:35.350Z,80.90
2019-01-12T14:36:05.300Z,80.80
2019-01-12T14:38:33.988Z,82.30
2019-01-12T14:41:01.864Z,82.50
2019-01-12T14:43:29.748Z,83.20
2019-01-12T14:45:57.544Z,83.80
2019-01-12T14:48:30.548Z,83.70
2019-01-12T14:50:58.280Z,84.60
2019-01-12T14:53:26.076Z,83.80
2019-01-12T14:55:53.855Z,82.80
2019-01-12T14:58:36.941Z,84.10
2019-01-12T15:01:04.948Z,86.20
2019-01-12T15:03:32.693Z,86.90
2019-01-12T15:06:07.896Z,86.40
2019-01-12T15:08:46.916Z,86.60
2019-01-12T15:11:17.537Z,87.50
2019-01-12T15:13:45.330Z,87.10
2019-01-12T15:16:13.126Z,85.90
2019-01-12T15:18:40.948Z,87.10
2019-01-12T15:21:08.766Z,87.50
2019-01-12T15:23:36.653Z,87.70
2019-01-12T15:26:04.856Z,87.60
2019-01-12T15:28:32.672Z,87.40
2019-01-12T15:31:00.517Z,87.70
2019-01-12T15:33:28.395Z,88.00
2019-01-12T15:35:56.943Z,87.60
2019-01-12T15:38:24.771Z,87.50
2019-01-12T15:40:52.621Z,87.60
2019-01-12T15:43:20.479Z,87.60
2019-01-12T15:45:48.406Z,87.60
2019-01-12T15:48:16.284Z,87.70
2019-01-12T15:50:44.183Z,87.50
2019-01-12T15:53:12.114Z,88.20
2019-01-12T15:55:40.033Z,87.70
2019-01-12T15:58:07.927Z,88.40
2019-01-12T16:00:35.890Z,88.20
2019-01-12T16:03:03.765Z,88.80
2019-01-12T16:05:31.657Z,89.10
2019-01-12T16:07:59.641Z,88.90
2019-01-12T16:10:27.571Z,87.90
2019-01-12T16:12:59.566Z,88.30
2019-01-12T16:15:27.818Z,87.50
2019-01-12T16:18:00.857Z,88.30
2019-01-12T16:20:39.940Z,87.40
2019-01-12T16:23:15.718Z,88.50
2019-01-12T16:25:44.026Z,88.10
2019-01-12T16:28:12.152Z,88.70
2019-01-12T16:30:40.053Z,88.10
2019-01-12T16:33:07.936Z,89.10
2019-01-12T16:35:35.923Z,88.40
2019-01-12T16:38:04.345Z,89.10
2019-01-12T16:40:32.340Z,90.20
2019-01-12T16:43:00.212Z,90.30
2019-01-12T16:45:28.061Z,90.50
2019-01-12T16:48:11.069Z,91.30
2019-01-12T16:50:38.867Z,91.00
2019-01-12T16:53:06.654Z,91.10
2019-01-12T16:55:34.433Z,90.70
2019-01-12T16:58:02.422Z,90.70
2019-01-12T17:00:30.868Z,90.70
2019-01-12T17:02:59.823Z,90.80
2019-01-12T17:05:27.617Z,90.80
2019-01-12T17:08:10.605Z,90.50
2019-01-12T17:10:38.362Z,90.20
2019-01-12T17:13:07.188Z,90.40
2019-01-12T17:15:35.187Z,90.40
2019-01-12T17:18:03.109Z,90.60
2019-01-12T17:20:30.988Z,90.30
2019-01-12T17:23:01.633Z,90.60
2019-01-12T17:25:29.449Z,90.50
2019-01-12T17:27:57.249Z,90.30
2019-01-12T17:30:25.127Z,90.70
2019-01-12T17:32:52.992Z,90.60
2019-01-12T17:35:20.835Z,91.00
2019-01-12T17:37:48.768Z,90.70
2019-01-12T17:40:17.028Z,90.80
2019-01-12T17:42:44.867Z,90.90
2019-01-12T17:45:17.114Z,91.50
2019-01-12T17:47:45.065Z,90.60
2019-01-12T17:50:16.316Z,90.60
2019-01-12T17:52:44.111Z,90.60
2019-01-12T17:55:15.350Z,90.70
2019-01-12T17:57:48.181Z,90.60
2019-01-12T18:00:33.489Z,90.50
2019-01-12T18:03:01.311Z,90.30
2019-01-12T18:05:29.151Z,90.10
2019-01-12T18:07:57.292Z,90.10
2019-01-12T18:10:25.100Z,90.00
2019-01-12T18:12:52.872Z,90.00
2019-01-12T18:15:20.622Z,89.60
2019-01-12T18:18:03.592Z,89.40
2019-01-12T18:20:31.423Z,88.90
2019-01-12T18:22:59.243Z,90.10
2019-01-12T18:25:27.066Z,90.00
2019-01-12T18:27:54.974Z,90.30
2019-01-12T18:30:22.893Z,90.20
2019-01-12T18:32:50.733Z,90.50
2019-01-12T18:35:18.555Z,90.60
2019-01-12T18:37:46.339Z,90.50
2019-01-12T18:40:15.802Z,91.10
2019-01-12T18:42:44.142Z,91.00
2019-01-12T18:45:14.687Z,91.20
2019-01-12T18:47:47.642Z,91.10
2019-01-12T18:50:19.220Z,90.90
2019-01-12T18:52:47.090Z,91.00
2019-01-12T18:55:14.952Z,90.90
2019-01-12T18:57:48.459Z,91.10
2019-01-12T19:00:30.364Z,91.00
2019-01-12T19:02:58.397Z,90.70
2019-01-12T19:05:29.214Z,90.60
2019-01-12T19:08:10.059Z,90.30
2019-01-12T19:10:46.726Z,90.10
2019-01-12T19:13:17.933Z,90.30
2019-01-12T19:15:45.690Z,90.90
2019-01-12T19:18:32.297Z,90.80
2019-01-12T19:21:00.159Z,91.10
2019-01-12T19:23:30.912Z,90.50
2019-01-12T19:26:02.966Z,90.80
2019-01-12T19:28:30.743Z,90.70
2019-01-12T19:31:01.736Z,90.90
2019-01-12T19:33:30.940Z,91.20
2019-01-12T19:36:02.341Z,90.10
2019-01-12T19:38:30.246Z,90.50
2019-01-12T19:40:58.075Z,90.80
2019-01-12T19:43:25.996Z,90.50
2019-01-12T19:45:53.938Z,91.00
2019-01-12T19:48:22.183Z,90.40
2019-01-12T19:50:50.235Z,90.30
2019-01-12T19:53:23.264Z,90.60
2019-01-12T19:55:51.151Z,90.80
2019-01-12T19:58:21.021Z,90.60
2019-01-12T20:00:49.357Z,90.90
2019-01-12T20:03:25.935Z,91.20
2019-01-12T20:05:53.697Z,91.20
2019-01-12T20:08:21.807Z,91.40
2019-01-12T20:10:49.583Z,90.60
2019-01-12T20:13:17.448Z,91.20
2019-01-12T20:15:45.308Z,90.80
2019-01-12T20:18:13.101Z,90.70
2019-01-12T20:20:41.022Z,90.80
2019-01-12T20:23:08.915Z,90.40
2019-01-12T20:25:36.791Z,90.50
2019-01-12T20:28:24.901Z,90.80
2019-01-12T20:31:55.980Z,91.20
2019-01-12T20:34:53.017Z,90.60
2019-01-12T20:38:04.542Z,90.70
2019-01-12T20:42:01.010Z,90.20
2019-01-12T20:45:05.841Z,90.80
2019-01-12T20:48:51.492Z,90.60
2019-01-12T20:52:16.580Z,90.90
2019-01-12T20:55:57.986Z,90.70
2019-01-12T20:59:17.280Z,90.00
2019-01-12T21:02:58.750Z,89.60
2019-01-12T21:06:21.524Z,88.90
2019-01-12T21:09:19.333Z,88.80
2019-01-12T21:13:05.503Z,88.70
2019-01-12T21:15:43.741Z,89.30
2019-01-12T21:18:11.591Z,89.90
2019-01-12T21:20:39.413Z,89.80
2019-01-12T21:23:07.389Z,88.80
2019-01-12T21:25:35.218Z,89.30
2019-01-12T21:28:03.076Z,89.50
2019-01-12T21:30:30.880Z,89.50
2019-01-12T21:32:58.673Z,90.20
2019-01-12T21:35:27.248Z,89.60
2019-01-12T21:37:55.112Z,89.20
2019-01-12T21:40:23.056Z,88.70
2019-01-12T21:42:50.929Z,88.20
2019-01-12T21:45:18.773Z,88.00
2019-01-12T21:47:46.793Z,88.20
2019-01-12T21:50:15.329Z,89.40
2019-01-12T21:52:43.159Z,90.10
2019-01-12T21:55:11.130Z,90.40
2019-01-12T21:57:39.116Z,90.00
2019-01-12T22:00:12.612Z,90.20
2019-01-12T22:02:40.464Z,90.40
2019-01-12T22:05:10.101Z,90.40
2019-01-12T22:07:38.438Z,90.40
2019-01-12T22:10:09.437Z,90.50
2019-01-12T22:12:37.233Z,90.30
2019-01-12T22:15:06.775Z,90.60
2019-01-12T22:17:34.696Z,90.30
2019-01-12T22:20:03.864Z,90.60
2019-01-12T22:22:31.644Z,90.80
2019-01-12T22:24:59.439Z,90.60
2019-01-12T22:27:27.366Z,90.50
2019-01-12T22:29:56.038Z,90.90
2019-01-12T22:32:24.014Z,90.70
2019-01-12T22:34:52.409Z,90.60
2019-01-12T22:37:25.427Z,91.00
2019-01-12T22:39:53.236Z,90.70
2019-01-12T22:42:21.029Z,91.00
2019-01-12T22:44:48.902Z,91.00
2019-01-12T22:47:26.901Z,91.30
2019-01-12T22:49:54.665Z,91.10
2019-01-12T22:52:22.504Z,91.30
2019-01-12T22:54:50.326Z,91.10
2019-01-12T22:57:18.182Z,91.70
2019-01-12T22:59:46.008Z,91.50
2019-01-12T23:02:13.940Z,91.40
2019-01-12T23:04:41.818Z,91.10
2019-01-12T23:07:11.523Z,91.40
2019-01-12T23:09:39.354Z,91.50
2019-01-12T23:12:07.321Z,91.00
2019-01-12T23:14:35.207Z,91.00
2019-01-12T23:17:03.466Z,90.90
2019-01-12T23:19:31.335Z,91.10
2019-01-12T23:21:59.142Z,91.00
2019-01-12T23:24:26.969Z,91.10
2019-01-12T23:27:04.978Z,91.30
2019-01-12T23:29:32.786Z,91.20
2019-01-12T23:32:00.589Z,91.10
2019-01-12T23:34:28.418Z,91.30
2019-01-12T23:36:56.368Z,91.30
2019-01-12T23:39:24.214Z,91.20
2019-01-12T23:41:52.056Z,91.30
2019-01-12T23:44:19.905Z,91.50
2019-01-12T23:46:47.742Z,91.30
2019-01-12T23:49:15.641Z,91.60
2019-01-12T23:51:43.430Z,91.60
2019-01-12T23:54:11.264Z,91.60
2019-01-12T23:56:39.117Z,91.60
2019-01-12T23:59:06.932Z,91.60
